createdAt,value
2023-01-17T00:01:42.190Z,4.24
2023-01-17T00:04:29.058Z,4.12
2023-01-17T00:07:14.135Z,4.29
2023-01-17T00:09:53.780Z,4.33
2023-01-17T00:12:20.783Z,4.08
2023-01-17T00:14:47.904Z,4.14
2023-01-17T00:17:14.432Z,4.16
2023-01-17T00:20:03.590Z,4.11
2023-01-17T00:22:49.147Z,4.04
2023-01-17T00:25:35.941Z,4.11
2023-01-17T00:28:03.435Z,4.01
2023-01-17T00:30:30.108Z,3.92
2023-01-17T00:32:56.393Z,3.88
2023-01-17T00:35:23.693Z,3.85
2023-01-17T00:37:59.845Z,3.87
2023-01-17T00:40:26.155Z,4.00
2023-01-17T00:42:52.444Z,3.70
2023-01-17T00:45:37.418Z,3.85
2023-01-17T00:48:22.191Z,4.02
2023-01-17T00:51:07.481Z,3.97
2023-01-17T00:53:52.447Z,4.05
2023-01-17T00:56:37.636Z,3.93
2023-01-17T00:59:22.443Z,3.71
2023-01-17T01:02:07.857Z,3.83
2023-01-17T01:04:53.637Z,3.94
2023-01-17T01:07:38.680Z,3.82
2023-01-17T01:10:24.095Z,3.74
2023-01-17T01:13:08.920Z,3.83
2023-01-17T01:15:54.090Z,3.68
2023-01-17T01:18:39.058Z,3.77
2023-01-17T01:21:24.085Z,3.96
2023-01-17T01:24:09.251Z,3.71
2023-01-17T01:26:54.275Z,3.80
2023-01-17T01:29:40.207Z,3.84
2023-01-17T01:32:25.083Z,3.68
2023-01-17T01:34:51.407Z,3.63
2023-01-17T01:37:17.736Z,3.52
2023-01-17T01:39:44.127Z,3.55
2023-01-17T01:42:14.318Z,3.58
2023-01-17T01:44:40.643Z,3.53
2023-01-17T01:47:08.519Z,3.72
2023-01-17T01:49:36.531Z,3.62
2023-01-17T01:52:03.488Z,3.84
2023-01-17T01:54:50.143Z,3.68
2023-01-17T01:57:18.712Z,3.52
2023-01-17T01:59:48.884Z,3.45
2023-01-17T02:02:15.698Z,3.68
2023-01-17T02:04:43.231Z,3.49
2023-01-17T02:07:15.563Z,3.41
2023-01-17T02:09:42.400Z,3.60
2023-01-17T02:12:09.264Z,3.53
2023-01-17T02:14:35.579Z,3.47
2023-01-17T02:17:17.270Z,3.35
2023-01-17T02:20:03.768Z,3.35
2023-01-17T02:22:30.082Z,3.45
2023-01-17T02:25:25.409Z,3.37
2023-01-17T02:27:52.798Z,3.51
2023-01-17T02:30:26.179Z,3.49
2023-01-17T02:32:52.545Z,3.21
2023-01-17T02:35:21.704Z,3.54
2023-01-17T02:37:57.433Z,3.34
2023-01-17T02:40:27.419Z,3.31
2023-01-17T02:43:02.738Z,3.45
2023-01-17T02:45:29.245Z,3.54
2023-01-17T02:47:55.587Z,3.64
2023-01-17T02:50:23.559Z,3.47
2023-01-17T02:53:12.295Z,3.33
2023-01-17T02:55:51.027Z,3.28
2023-01-17T02:58:20.335Z,3.46
2023-01-17T03:00:50.281Z,3.32
2023-01-17T03:03:43.153Z,3.59
2023-01-17T03:06:29.324Z,3.32
2023-01-17T03:08:55.693Z,3.38
2023-01-17T03:11:22.133Z,3.31
2023-01-17T03:13:48.483Z,3.15
2023-01-17T03:16:19.803Z,2.97
2023-01-17T03:18:46.269Z,3.27
2023-01-17T03:21:12.763Z,2.96
2023-01-17T03:23:39.091Z,2.89
2023-01-17T03:26:05.547Z,3.01
2023-01-17T03:28:31.876Z,2.96
2023-01-17T03:30:58.207Z,3.05
2023-01-17T03:33:25.112Z,3.03
2023-01-17T03:35:51.693Z,2.87
2023-01-17T03:38:18.017Z,2.88
2023-01-17T03:40:44.409Z,2.80
2023-01-17T03:43:10.891Z,2.89
2023-01-17T03:45:37.674Z,2.67
2023-01-17T03:48:04.223Z,2.66
2023-01-17T03:50:30.549Z,2.53
2023-01-17T03:52:56.951Z,2.61
2023-01-17T03:55:25.297Z,2.57
2023-01-17T03:57:51.793Z,2.58
2023-01-17T04:00:18.348Z,2.26
2023-01-17T04:02:45.698Z,2.51
2023-01-17T04:05:12.165Z,2.39
2023-01-17T04:07:38.481Z,2.49
2023-01-17T04:10:05.128Z,2.59
2023-01-17T04:12:31.511Z,2.41
2023-01-17T04:14:57.836Z,2.20
2023-01-17T04:17:25.211Z,2.38
2023-01-17T04:19:51.690Z,2.20
2023-01-17T04:22:18.209Z,2.33
2023-01-17T04:24:44.551Z,2.06
2023-01-17T04:27:14.166Z,2.12
2023-01-17T04:29:40.543Z,2.34
2023-01-17T04:32:06.870Z,2.29
2023-01-17T04:34:33.302Z,2.18
2023-01-17T04:36:59.658Z,2.04
2023-01-17T04:39:26.015Z,2.15
2023-01-17T04:41:52.310Z,2.32
2023-01-17T04:44:22.786Z,2.38
2023-01-17T04:46:49.106Z,2.23
2023-01-17T04:49:15.482Z,2.32
2023-01-17T04:51:41.810Z,2.20
2023-01-17T04:54:08.113Z,1.99
2023-01-17T04:56:34.436Z,1.88
2023-01-17T04:59:00.826Z,2.14
2023-01-17T05:01:33.209Z,2.17
2023-01-17T05:03:59.601Z,1.86
2023-01-17T05:06:25.924Z,1.73
2023-01-17T05:08:52.248Z,2.01
2023-01-17T05:11:18.726Z,2.09
2023-01-17T05:13:47.323Z,1.80
2023-01-17T05:16:13.706Z,1.95
2023-01-17T05:18:40.043Z,1.94
2023-01-17T05:21:08.491Z,1.66
2023-01-17T05:23:34.825Z,1.84
2023-01-17T05:26:01.181Z,1.74
2023-01-17T05:28:27.726Z,1.76
2023-01-17T05:30:54.091Z,1.65
2023-01-17T05:33:20.440Z,1.29
2023-01-17T05:35:46.752Z,1.51
2023-01-17T05:38:13.077Z,1.45
2023-01-17T05:40:39.501Z,1.46
2023-01-17T05:43:05.885Z,1.64
2023-01-17T05:45:33.276Z,1.55
2023-01-17T05:47:59.918Z,1.66
2023-01-17T05:50:30.610Z,1.54
2023-01-17T05:52:58.286Z,1.44
2023-01-17T05:55:27.114Z,1.27
2023-01-17T05:57:54.626Z,1.50
2023-01-17T06:00:21.491Z,1.40
2023-01-17T06:02:48.266Z,1.36
2023-01-17T06:05:15.662Z,1.59
2023-01-17T06:07:46.037Z,1.45
2023-01-17T06:10:14.343Z,1.34
2023-01-17T06:12:41.502Z,1.50
2023-01-17T06:15:08.290Z,1.51
2023-01-17T06:17:35.055Z,1.42
2023-01-17T06:20:01.443Z,1.35
2023-01-17T06:22:27.768Z,1.13
2023-01-17T06:24:54.106Z,1.30
2023-01-17T06:27:21.147Z,1.31
2023-01-17T06:29:47.501Z,1.47
2023-01-17T06:32:14.972Z,1.43
2023-01-17T06:34:41.877Z,1.41
2023-01-17T06:37:08.269Z,1.14
2023-01-17T06:39:34.609Z,1.23
2023-01-17T06:42:00.985Z,1.42
2023-01-17T06:44:27.313Z,1.19
2023-01-17T06:46:53.857Z,1.01
2023-01-17T06:49:20.196Z,1.33
2023-01-17T06:51:46.620Z,1.31
2023-01-17T06:54:12.995Z,1.40
2023-01-17T06:56:39.371Z,1.58
2023-01-17T06:59:05.787Z,1.47
2023-01-17T07:01:32.463Z,1.38
2023-01-17T07:04:01.975Z,1.60
2023-01-17T07:06:28.696Z,1.51
2023-01-17T07:08:56.121Z,1.62
2023-01-17T07:11:22.842Z,1.34
2023-01-17T07:13:49.472Z,1.44
2023-01-17T07:16:16.015Z,1.39
2023-01-17T07:18:42.747Z,1.59
2023-01-17T07:21:13.247Z,1.63
2023-01-17T07:23:39.586Z,1.75
2023-01-17T07:26:06.054Z,1.65
2023-01-17T07:28:32.637Z,1.67
2023-01-17T07:30:58.996Z,1.77
2023-01-17T07:33:25.347Z,1.77
2023-01-17T07:35:51.653Z,1.87
2023-01-17T07:38:24.079Z,1.85
2023-01-17T07:40:50.411Z,1.89
2023-01-17T07:43:17.348Z,1.89
2023-01-17T07:45:44.529Z,2.16
2023-01-17T07:48:11.267Z,2.23
2023-01-17T07:50:41.693Z,2.30
2023-01-17T07:53:08.100Z,2.31
2023-01-17T07:55:34.491Z,2.31
2023-01-17T07:58:02.854Z,2.20
2023-01-17T08:00:29.599Z,2.33
2023-01-17T08:03:00.035Z,2.29
2023-01-17T08:05:28.372Z,2.38
2023-01-17T08:07:54.742Z,2.41
2023-01-17T08:10:21.272Z,2.97
2023-01-17T08:12:48.494Z,3.09
2023-01-17T08:15:15.639Z,4.14
2023-01-17T08:17:46.307Z,3.84
2023-01-17T08:20:20.885Z,3.38
2023-01-17T08:22:47.238Z,3.15
2023-01-17T08:25:13.634Z,3.64
2023-01-17T08:27:43.109Z,4.47
2023-01-17T08:30:09.767Z,5.76
2023-01-17T08:32:36.120Z,6.52
2023-01-17T08:35:02.625Z,6.43
2023-01-17T08:37:28.945Z,6.77
2023-01-17T08:39:55.263Z,6.96
2023-01-17T08:42:21.671Z,6.63
2023-01-17T08:44:47.997Z,6.59
2023-01-17T08:47:14.370Z,5.98
2023-01-17T08:49:40.677Z,4.95
2023-01-17T08:52:07.377Z,4.76
2023-01-17T08:54:33.827Z,4.83
2023-01-17T08:57:00.198Z,4.70
2023-01-17T08:59:26.557Z,5.35
2023-01-17T09:01:55.349Z,6.45
2023-01-17T09:04:21.828Z,6.83
2023-01-17T09:06:48.810Z,5.71
2023-01-17T09:09:15.716Z,5.04
2023-01-17T09:11:42.455Z,4.53
2023-01-17T09:14:11.203Z,4.75
2023-01-17T09:16:37.584Z,4.37
2023-01-17T09:19:03.966Z,4.37
2023-01-17T09:21:30.383Z,4.55
2023-01-17T09:23:56.757Z,4.29
2023-01-17T09:26:29.633Z,4.22
2023-01-17T09:28:56.016Z,3.93
2023-01-17T09:31:23.241Z,4.30
2023-01-17T09:33:50.349Z,4.10
2023-01-17T09:36:17.126Z,4.26
2023-01-17T09:38:44.733Z,5.27
2023-01-17T09:41:19.650Z,6.35
2023-01-17T09:43:49.002Z,6.26
2023-01-17T09:46:38.962Z,7.03
2023-01-17T09:49:09.859Z,6.92
2023-01-17T09:51:36.585Z,7.08
2023-01-17T09:54:05.646Z,6.81
2023-01-17T09:56:35.809Z,5.99
2023-01-17T09:59:32.259Z,6.13
2023-01-17T10:02:21.022Z,5.93
2023-01-17T10:04:49.050Z,5.40
2023-01-17T10:07:27.564Z,6.48
2023-01-17T10:10:13.749Z,7.21
2023-01-17T10:12:43.119Z,7.38
2023-01-17T10:15:23.626Z,7.03
2023-01-17T10:18:10.134Z,6.95
2023-01-17T10:20:50.272Z,7.66
2023-01-17T10:23:27.677Z,6.39
2023-01-17T10:26:10.284Z,6.00
2023-01-17T10:28:37.725Z,5.50
2023-01-17T10:31:07.131Z,5.12
2023-01-17T10:33:48.382Z,5.39
2023-01-17T10:36:18.758Z,5.28
2023-01-17T10:38:47.129Z,5.13
2023-01-17T10:41:29.857Z,5.12
2023-01-17T10:43:56.256Z,5.99
2023-01-17T10:46:28.493Z,6.57
2023-01-17T10:48:55.356Z,6.68
2023-01-17T10:51:30.812Z,6.38
2023-01-17T10:53:57.117Z,6.07
2023-01-17T10:56:43.704Z,5.58
2023-01-17T10:59:16.224Z,5.29
2023-01-17T11:01:43.181Z,5.16
2023-01-17T11:04:19.712Z,5.27
2023-01-17T11:06:57.838Z,4.97
2023-01-17T11:09:36.600Z,5.97
2023-01-17T11:12:03.028Z,6.86
2023-01-17T11:14:30.778Z,7.05
2023-01-17T11:17:06.934Z,7.08
2023-01-17T11:19:37.307Z,6.56
2023-01-17T11:22:05.417Z,6.73
2023-01-17T11:24:41.685Z,6.68
2023-01-17T11:27:22.820Z,7.01
2023-01-17T11:30:02.916Z,7.08
2023-01-17T11:32:32.082Z,7.20
2023-01-17T11:35:07.847Z,7.14
2023-01-17T11:37:35.136Z,7.40
2023-01-17T11:40:20.401Z,7.27
2023-01-17T11:42:46.736Z,7.23
2023-01-17T11:45:22.335Z,6.90
2023-01-17T11:47:48.692Z,7.31
2023-01-17T11:50:25.144Z,6.86
2023-01-17T11:52:51.599Z,7.38
2023-01-17T11:55:18.208Z,7.49
2023-01-17T11:57:49.447Z,7.23
2023-01-17T12:00:21.713Z,7.27
2023-01-17T12:03:15.134Z,6.76
2023-01-17T12:05:41.482Z,6.93
2023-01-17T12:08:30.320Z,7.00
2023-01-17T12:11:01.346Z,7.06
2023-01-17T12:14:00.546Z,6.79
2023-01-17T12:16:39.361Z,6.70
2023-01-17T12:19:08.736Z,6.51
2023-01-17T12:21:37.152Z,6.62
2023-01-17T12:24:17.186Z,6.01
2023-01-17T12:27:02.685Z,6.16
2023-01-17T12:29:34.965Z,6.53
2023-01-17T12:32:11.765Z,6.55
2023-01-17T12:34:41.152Z,5.95
2023-01-17T12:37:45.783Z,6.39
2023-01-17T12:40:17.683Z,5.77
2023-01-17T12:42:51.077Z,6.57
2023-01-17T12:45:33.131Z,6.57
2023-01-17T12:48:05.588Z,6.30
2023-01-17T12:50:40.333Z,6.42
2023-01-17T12:53:06.874Z,6.46
2023-01-17T12:55:36.363Z,6.59
2023-01-17T12:58:06.026Z,6.05
2023-01-17T13:00:35.574Z,6.39
2023-01-17T13:03:14.335Z,6.01
2023-01-17T13:05:42.727Z,6.01
2023-01-17T13:08:28.959Z,6.08
2023-01-17T13:11:06.796Z,6.20
2023-01-17T13:13:35.604Z,6.16
2023-01-17T13:16:07.366Z,6.16
2023-01-17T13:18:35.312Z,6.13
2023-01-17T13:21:04.896Z,5.87
2023-01-17T13:23:49.592Z,6.14
2023-01-17T13:26:29.695Z,5.93
2023-01-17T13:29:04.287Z,5.64
2023-01-17T13:31:30.615Z,5.67
2023-01-17T13:34:14.218Z,5.71
2023-01-17T13:36:58.981Z,5.27
2023-01-17T13:39:37.349Z,5.71
2023-01-17T13:42:23.814Z,5.63
2023-01-17T13:44:50.555Z,5.41
2023-01-17T13:47:16.861Z,5.41
2023-01-17T13:49:48.633Z,5.21
2023-01-17T13:52:14.971Z,5.48
2023-01-17T13:54:51.931Z,5.56
2023-01-17T13:57:29.898Z,5.75
2023-01-17T13:59:57.760Z,5.64
2023-01-17T14:02:36.179Z,5.60
2023-01-17T14:05:05.711Z,5.49
2023-01-17T14:07:33.088Z,5.46
2023-01-17T14:09:59.499Z,5.34
2023-01-17T14:12:31.383Z,5.30
2023-01-17T14:15:00.681Z,5.22
2023-01-17T14:17:43.287Z,5.09
2023-01-17T14:20:09.617Z,4.89
2023-01-17T14:22:37.961Z,4.82
2023-01-17T14:25:17.874Z,4.79
2023-01-17T14:27:47.150Z,4.92
2023-01-17T14:30:16.622Z,4.74
2023-01-17T14:33:03.204Z,4.78
2023-01-17T14:35:33.752Z,4.79
2023-01-17T14:38:03.327Z,4.78
2023-01-17T14:40:30.946Z,4.71
2023-01-17T14:43:00.278Z,4.71
2023-01-17T14:45:28.668Z,4.44
2023-01-17T14:47:56.687Z,4.52
2023-01-17T14:50:29.227Z,4.58
2023-01-17T14:53:14.008Z,4.61
2023-01-17T14:55:57.196Z,4.40
2023-01-17T14:58:25.397Z,4.36
2023-01-17T15:00:53.388Z,4.18
2023-01-17T15:03:19.887Z,4.19
2023-01-17T15:05:49.850Z,4.12
2023-01-17T15:08:18.260Z,4.18
2023-01-17T15:10:53.555Z,4.04
2023-01-17T15:13:32.553Z,4.02
2023-01-17T15:16:08.049Z,4.04
2023-01-17T15:18:42.709Z,3.96
2023-01-17T15:21:13.398Z,3.85
2023-01-17T15:23:43.560Z,3.63
2023-01-17T15:26:12.842Z,3.59
2023-01-17T15:28:39.811Z,3.47
2023-01-17T15:31:08.792Z,3.40
2023-01-17T15:33:38.015Z,3.30
2023-01-17T15:36:16.252Z,3.22
2023-01-17T15:38:47.793Z,3.15
2023-01-17T15:41:15.725Z,3.00
2023-01-17T15:43:43.340Z,2.91
2023-01-17T15:46:20.878Z,2.85
2023-01-17T15:48:47.299Z,2.77
2023-01-17T15:51:13.784Z,2.70
2023-01-17T15:53:41.938Z,2.68
2023-01-17T15:56:20.329Z,2.65
2023-01-17T15:58:50.283Z,2.61
2023-01-17T16:01:23.876Z,2.61
2023-01-17T16:03:56.408Z,2.49
2023-01-17T16:06:35.130Z,2.38
2023-01-17T16:09:01.455Z,2.38
2023-01-17T16:11:27.790Z,2.34
2023-01-17T16:13:54.115Z,2.28
2023-01-17T16:16:24.232Z,2.18
2023-01-17T16:18:56.098Z,2.07
2023-01-17T16:21:29.515Z,1.92
2023-01-17T16:23:56.476Z,1.87
2023-01-17T16:26:23.571Z,1.93
2023-01-17T16:28:50.127Z,1.72
2023-01-17T16:31:16.741Z,1.67
2023-01-17T16:33:43.184Z,1.80
2023-01-17T16:36:14.695Z,1.44
2023-01-17T16:38:41.398Z,1.62
2023-01-17T16:41:07.860Z,1.75
2023-01-17T16:43:34.205Z,1.61
2023-01-17T16:46:00.564Z,1.52
2023-01-17T16:48:35.015Z,1.31
2023-01-17T16:51:04.812Z,1.38
2023-01-17T16:53:31.165Z,1.46
2023-01-17T16:55:58.966Z,1.28
2023-01-17T16:58:25.396Z,1.27
2023-01-17T17:00:51.909Z,1.24
2023-01-17T17:03:19.158Z,1.15
2023-01-17T17:05:53.722Z,1.09
2023-01-17T17:08:20.081Z,1.00
2023-01-17T17:10:46.413Z,0.98
2023-01-17T17:13:12.741Z,0.89
2023-01-17T17:15:43.909Z,0.82
2023-01-17T17:18:15.161Z,0.78
2023-01-17T17:20:41.663Z,0.78
2023-01-17T17:23:09.941Z,0.71
2023-01-17T17:25:36.664Z,0.65
2023-01-17T17:28:03.653Z,0.65
2023-01-17T17:30:31.495Z,0.65
2023-01-17T17:32:58.265Z,0.63
2023-01-17T17:35:24.765Z,0.50
2023-01-17T17:37:51.335Z,0.69
2023-01-17T17:40:17.901Z,0.75
2023-01-17T17:42:44.218Z,0.76
2023-01-17T17:45:10.718Z,0.77
2023-01-17T17:47:37.113Z,0.82
2023-01-17T17:50:03.739Z,0.77
2023-01-17T17:52:30.187Z,0.71
2023-01-17T17:54:56.527Z,0.66
2023-01-17T17:57:22.881Z,0.63
2023-01-17T17:59:49.247Z,0.61
2023-01-17T18:02:21.614Z,0.62
2023-01-17T18:04:47.991Z,0.46
2023-01-17T18:07:16.374Z,0.52
2023-01-17T18:09:42.822Z,0.50
2023-01-17T18:12:09.145Z,0.45
2023-01-17T18:14:36.070Z,0.50
2023-01-17T18:17:02.421Z,0.48
2023-01-17T18:19:28.799Z,0.46
2023-01-17T18:21:55.265Z,0.43
2023-01-17T18:24:23.408Z,0.33
2023-01-17T18:26:50.853Z,0.36
2023-01-17T18:29:18.478Z,0.50
2023-01-17T18:31:45.329Z,0.44
2023-01-17T18:34:13.830Z,0.37
2023-01-17T18:36:40.271Z,0.28
2023-01-17T18:39:35.876Z,0.21
2023-01-17T18:42:02.302Z,0.27
2023-01-17T18:44:29.710Z,0.27
2023-01-17T18:46:59.481Z,0.32
2023-01-17T18:49:25.901Z,0.44
2023-01-17T18:51:52.211Z,0.46
2023-01-17T18:54:19.565Z,0.44
2023-01-17T18:56:46.094Z,0.36
2023-01-17T18:59:13.011Z,0.34
2023-01-17T19:01:42.254Z,0.35
2023-01-17T19:04:09.043Z,0.51
2023-01-17T19:06:36.778Z,0.40
2023-01-17T19:09:03.621Z,0.47
2023-01-17T19:11:30.040Z,0.54
2023-01-17T19:13:56.818Z,0.58
2023-01-17T19:16:24.659Z,0.59
2023-01-17T19:18:55.330Z,0.58
2023-01-17T19:21:23.026Z,0.60
2023-01-17T19:23:50.578Z,0.59
2023-01-17T19:26:17.729Z,0.63
2023-01-17T19:28:44.973Z,0.52
2023-01-17T19:31:16.270Z,0.63
2023-01-17T19:33:43.859Z,0.44
2023-01-17T19:36:11.735Z,0.34
2023-01-17T19:38:38.240Z,0.31
2023-01-17T19:41:29.220Z,0.39
2023-01-17T19:43:56.572Z,0.42
2023-01-17T19:46:25.979Z,0.34
2023-01-17T19:48:52.838Z,0.30
2023-01-17T19:51:19.296Z,0.46
2023-01-17T19:53:45.627Z,0.46
2023-01-17T19:56:14.540Z,0.56
2023-01-17T19:58:41.475Z,0.45
2023-01-17T20:01:07.872Z,0.54
2023-01-17T20:03:34.472Z,0.58
2023-01-17T20:06:00.878Z,0.56
2023-01-17T20:08:27.245Z,0.65
2023-01-17T20:10:53.609Z,0.62
2023-01-17T20:13:19.948Z,0.62
2023-01-17T20:15:46.261Z,0.58
2023-01-17T20:18:12.681Z,0.63
2023-01-17T20:20:56.242Z,0.63
2023-01-17T20:23:23.146Z,0.60
2023-01-17T20:26:04.462Z,0.65
2023-01-17T20:28:32.809Z,0.57
2023-01-17T20:31:04.347Z,0.62
2023-01-17T20:33:35.754Z,0.62
2023-01-17T20:36:10.249Z,0.72
2023-01-17T20:38:43.869Z,0.77
2023-01-17T20:41:22.569Z,0.62
2023-01-17T20:43:50.344Z,0.79
2023-01-17T20:46:17.230Z,0.77
2023-01-17T20:48:45.807Z,0.84
2023-01-17T20:51:12.386Z,0.87
2023-01-17T20:53:42.410Z,0.80
2023-01-17T20:56:09.709Z,0.77
2023-01-17T20:58:36.047Z,0.82
2023-01-17T21:01:02.473Z,0.87
2023-01-17T21:03:33.769Z,0.88
2023-01-17T21:06:01.715Z,0.83
2023-01-17T21:08:29.219Z,0.91
2023-01-17T21:10:55.543Z,0.87
2023-01-17T21:13:23.402Z,0.96
2023-01-17T21:15:50.154Z,0.96
2023-01-17T21:18:17.076Z,0.98
2023-01-17T21:20:43.765Z,1.02
2023-01-17T21:23:17.790Z,1.04
2023-01-17T21:26:04.396Z,1.07
2023-01-17T21:28:33.106Z,0.97
2023-01-17T21:30:59.785Z,1.00
2023-01-17T21:33:26.849Z,1.02
2023-01-17T21:35:53.256Z,1.04
2023-01-17T21:38:19.746Z,1.06
2023-01-17T21:40:46.151Z,0.99
2023-01-17T21:43:12.780Z,1.00
2023-01-17T21:45:39.593Z,1.04
2023-01-17T21:48:12.080Z,1.05
2023-01-17T21:50:38.679Z,0.95
2023-01-17T21:53:05.055Z,1.03
2023-01-17T21:55:49.853Z,0.97
2023-01-17T21:58:35.701Z,0.91
2023-01-17T22:01:17.659Z,0.97
2023-01-17T22:03:50.431Z,1.01
2023-01-17T22:06:17.283Z,0.85
2023-01-17T22:08:44.030Z,0.95
2023-01-17T22:11:11.541Z,1.05
2023-01-17T22:13:38.386Z,1.01
2023-01-17T22:16:05.964Z,0.99
2023-01-17T22:18:37.119Z,0.99
2023-01-17T22:21:08.279Z,0.96
2023-01-17T22:23:34.965Z,0.84
2023-01-17T22:26:02.293Z,0.89
2023-01-17T22:28:29.758Z,1.03
2023-01-17T22:30:56.109Z,1.03
2023-01-17T22:33:22.434Z,0.98
2023-01-17T22:35:56.340Z,0.88
2023-01-17T22:38:23.759Z,0.91
2023-01-17T22:40:50.082Z,0.83
2023-01-17T22:43:16.386Z,0.90
2023-01-17T22:45:42.720Z,0.93
2023-01-17T22:48:10.090Z,0.77
2023-01-17T22:50:36.430Z,0.80
2023-01-17T22:53:04.912Z,0.87
2023-01-17T22:55:31.582Z,0.81
2023-01-17T22:57:57.999Z,0.96
2023-01-17T23:00:24.462Z,0.81
2023-01-17T23:02:53.313Z,0.75
2023-01-17T23:05:20.236Z,0.83
2023-01-17T23:07:51.295Z,0.89
2023-01-17T23:10:53.098Z,0.92
2023-01-17T23:13:19.554Z,1.01
2023-01-17T23:16:07.694Z,0.98
2023-01-17T23:18:53.061Z,1.01
2023-01-17T23:21:21.474Z,0.94
2023-01-17T23:23:47.808Z,0.87
2023-01-17T23:26:14.247Z,0.84
2023-01-17T23:28:40.598Z,0.80
2023-01-17T23:31:08.654Z,0.93
2023-01-17T23:33:35.079Z,0.96
2023-01-17T23:36:01.582Z,1.15
2023-01-17T23:38:31.177Z,1.18
2023-01-17T23:41:25.399Z,1.08
2023-01-17T23:43:53.473Z,1.10
2023-01-17T23:46:20.177Z,0.96
2023-01-17T23:48:46.635Z,0.99
2023-01-17T23:51:13.132Z,0.97
2023-01-17T23:53:39.945Z,0.92
2023-01-17T23:56:26.865Z,0.99
2023-01-17T23:58:53.264Z,0.90
